Timeline UpdatesTrip UpdatesNews PostsPvt PostsTravel TipsAdmin PostsConv PostsFollowed PostsChat RequestsBlog PostsPNR Posts

Disclaimer
Search
 
 
Wed Sep 3, 2014 00:29:26 ISTHomeTrainsΣChainsAtlasPNRForumGalleryNewsFAQTripsMembersLoginFeedback
No Recent News for this Train
Other Trains in the News **new
Latest...
2S avbl b/w mumbai & surat .
Tue Feb 04, 2014 (12:55AM)
⇐ Return Journey: Train# 19024

19023/Mumbai Firozpur Janta Express

Time-Table HAS CHANGED.
Yesterday (12:00AM)
Change Departure Station:
Change Arrival Station:
Post a Train Travel TipPost a Train Travel Tip **new
Post a Comment/Question/Picture/VideoPost a Comment/Question/Picture/Video
Inaugural Run
Mon Oct 01, 1956
Pantry/Catering
✕ NO Pantry Car
✓ Catering Avbl
Catering from local vendors
RSA - Rake Sharing
No RSA. Independent Rake.
Rake/Coach Composition
LOCO, HCPV, SLR, GS, S-8, S-7, S-6, S-5, S-4, S-3, S-2, S-1, GS, GS(MST), GS, SLR Author: Manish Kr Singh Entry: 640399
Loco
BCT NDLS = GZB WAP#5, NDLS-FZR TKD WDP-4/4B
News    PNR    Forum    Time-Table    Availability    Fare Chart    Map    Arr/Dep History    Trips    Gallery    ΣChains    X/O    Timeline    
Travel Time: 31h 11m    67 halts    Distance: 1425 km    Avg Speed: 45 km/hr
Type: Mail/Express
Zone: WR/Western
Departs @ 15:09
Platform# ???
SMTWTFS
Palej/PLJ 
Arrives @ 22:20 +1 night
Platform# 1
SMTWTFS
Firozpur Cantt. Junction/FZR 

67 halts. 212 intermediate Stations between Palej and Firozpur Cantt. Junction

Show ALL intermediate Stations  Show Old Time-Table

#CodeStation NameX/OArrivesAvgDepartsAvgHaltPFDay#KmSpeedElevZoneAddress
1BCTMumbai Central (9)  -07:25-41-347.8363mWRMumbai 400008, Maharashtra
2DDRMumbai Dadar Western (6)  07:34 07:35-07:37-3 2m31-341.9516mWRMumbai, Maharashtra
3BVIMumbai Borivali (8)  08:04 08:05-08:07-3 2m41-318.15119mWRMumbai - 400092, Maharashtra
4PLGPalghar (3)O  09:14-09:16-2m11-261.14219mWRPalghar, Maharashtra
5BORBoisar (3)X  09:32-09:34-2m21-249.93517mWRBoisar Tel.no-02525-266626, Maharashtra
6VGNVangaon (3)XO  09:51 09:50-09:52-1 2m11-240.55311mWRDist. Palghar, Maharashtra
7DRDDahanu Road (5)X  10:06-10:08-2m11-228.27612mWRDahanu, Maharashtra
8UBRUmbargam Road (3)X  10:24-10:26-2m11-207.94030mWRUmbergaon, Gujarat
9SJNSanjan (3)X  10:34-10:36-2m11-202.56922mWRSanjan, Gujarat
10BLDBhilad (3)  10:46-10:48-2m21-190.95633mWRBhilad, Gujarat
11VAPIVapi (3)X  11:00-11:02-2m11-179.64827mWRVapi, Gujarat
12UVDUdvada (3)X  11:14-11:16-2m--1-170.16018mWRUdvada, Gujarat
13PADPardi (3)X  11:22-11:24-2m--1-164.14919mWRValsad, Gujarat
14BLValsad (3)X  11:42 11:37-11:47 11:42-5m21-153.46315mWRValsad, Gujarat
15BIMBilimora Junction (4)X  11:59-12:01-2m11-135.53711mWRBilimora, Gujarat
16AMLAmalsad (3)  12:10-12:12-2m11-129.97212mWRAmalsad, Gujarat
17NVSNavsari (3)  12:22 12:25-12:27-5 2m11-114.34614mWRNavsari, Gujarat
18MRLMaroli (3)X  12:38-12:40-2m11-105.92715mWRMaroli, Gujarat
19STSurat (4)X  13:27-13:37-10m11-84.77919mWRSurat 395001, Gujarat
20KIMKim (2)X  13:55-13:57-2m11-61.15818mWRNH 8, Gujarat
21KSBKosamba Junction (3)  14:05-14:07-2m11-53.37130mWRKosamba, Gujarat
22PAOPanoli (3)  14:14-14:16-2m11-45.17729mWRPanoli, Gujarat
23AKVAnkleshwar Junction (4)  14:24-14:26-2m11-34.83719mWRAnkleshwar, Gujarat
24BHBharuch Junction (5)  14:41-14:46-5m31-25.48019mWRBharuch, Gujarat
25NIUNabipur (3)14:55-14:57-2m--1-13.48024mWRNabipur, Gujarat
26PLJ»Palej (4)»X  15:07-15:09-2m--10.08329mWRPalej, Gujarat
27MYGMiyagam Karjan (2)X  15:20-15:22-2m2115.35429mWRKarjan, Gujarat
28BRCVadodara Junction (7)  15:55-16:05-10m6145.17336mWRVadodara 390005, Gujarat
29SMLASamlaya Junction (3)  16:27-16:29-2m--171.77567mWRVadodara, Gujarat
30DRLDerol  16:48-16:50-2m--195.44381mWRKalol, Gujarat
31GDAGodhra Junction (3)  17:23-17:28-5m21119.064122mWRGodhra, Gujarat
32SATSant Road (2)  17:47-17:49-2m--1139.471169mWROrwara, Gujarat
33PPDPiplod Junction  17:59-18:01-2m--1151.279209mWRPiplod, Gujarat
34LMKLimkheda  18:07-18:09-2m--1159.171205mWRLimkheda, Gujarat
35DHDDahod (3)  18:37-18:42-5m--1192.199313mWRDahod, Gujarat
36MGNMeghnagar (3)X  19:02-19:04-2m--1225.260317mWRJhabua, Madhya Pradesh
37THDRThandla Road (2)X  19:12-19:14-2m--1233.272317mWRJhabua, Madhya Pradesh
38BMIBamnia (2)X  19:37-19:39-2m--1260.848392mWRBamnia, Madhya Pradesh
39RTMRatlam Junction (7)X  20:35-20:55-20m51305.572495mWRRatlam, Madhya Pradesh
40KUHKhachrod (2)X  21:17 21:18-21:19 21:20-2m--1333.121497mWRUjjain, Madhya Pradesh
41NADNagda Junction (4)O  22:00-22:05-5m--1346.968468mWRNagda, Madhya Pradesh
42MEPMahidpur Road  22:20-22:22-2m--1364.090493mWCRGogapur, Madhya Pradesh
43VMAVikramgarh Alot (2)X  22:38-22:40-2m21387.982443mWCRKota Division, Madhya Pradesh
44CMUChau Mahla (3)  22:56-22:58-2m21409.766426mWCRJhalawar, Rajasthan
45SVASuwasra (2)  23:12-23:14-2m--1425.173450mWCRSuwasra, Madhya Pradesh
46SGZShamgarh (3)  23:28 23:25-23:30-2 5m--1438.51463mWCRMandsaur, Madhya Pradesh
47BWMBhawani Mandi (3)  23:59 23:59-00:01 00:01-2m--2472.0-1384mWCRBhawani Mandi, Madhya Pradesh
48JHWJhalawar Road (3)X  00:15-00:17-2m--2488.553361mWCRJhalawar City, Rajasthan
49RMARamganj Mandi Junction (3)X  00:31-00:33-2m--2500.982358mWCRRamganj Mandi, Rajasthan
50KOTAKota Junction (5)X  01:25-01:35-10m12572.171256mWCRKota, Rajasthan
51LKELakheri (3)X  02:26-02:28-2m--2632.755228mWCRBundi, Rajasthan
52IDGIndargarh Sumerganj Mandi (2)X  02:40-02:42-2m--2643.778247mWCRIndargarh, Rajasthan
53SWMSawai Madhopur Junction (4)X  03:15 03:10-03:20-5 10m--2679.972266mWCRSawai Madhopur, Rajasthan
54MLZMalarna  03:45-03:47-2m--2710.144236mWCRSawai Madhopur, Rajasthan
55NNWNarayanpur Tatwara (2)XO  04:10-04:12-2m--2726.912256mWCRSawai Madhopur, Rajasthan
56GGCGangapur City (3)O  05:40 05:35-05:45-5 10m12743.962270mWCRGangapur, Rajasthan
57SMBJShri Mahabirji (3)  06:19 06:18-06:20-1 2m--2777.947240mWCRKarauli, Rajasthan
58HANHindaun City (2)  06:33-06:35-2m--2788.179230mWCRKarauli, Rajasthan
59FSPFateh Singhpura  06:45-06:47-2m--2801.366223mWCRState Highway 1, Rajasthan
60BXNBayana Junction (3)  07:05-07:10-5m--2821.050198mWCRBayana, Rajasthan
61BTEBharatpur Junction (5)X  08:00-08:05-5m--2863.024174mWCRBharatpur, Rajasthan
62MTJMathura Junction (10)  09:35 09:30-09:45 09:35-10 5m42896.569179mNCRMathura, Uttar Pradesh
63CHJChata (4)X  10:07 10:02-10:09 10:04-2m--2927.751 NCRChhata, Uttar Pradesh
64KSVKosi Kalan (3)X  10:20 10:16-10:22 10:18-2m12938.054189mNCRKosi Kalan, Uttar Pradesh
65PWLPalwal (8)X  11:08 11:05-11:10 11:07-2m--2980.479200mNRPalwal, Haryana
66BVHBallabgarh (5)X  11:28 11:23-11:30 11:25-2m--21001.640203mNRFaridabad, Haryana
67FDBFaridabad (4)X  11:41 11:37-11:43 11:39-2m221009.756206mNRold Faridabad, Haryana
68TKDTuglakabad (4)  11:55 11:51-11:57 11:53-2m--21020.828213mNRNear Tughlakabad Metro Station, Delhi NCT
69OKAOkhla (4)X  12:06-12:08 12:07-2 1m--21026.828221mNRIshwar Nagar Mathura Road, Delhi NCT
70NZMDelhi Hazrat Nizamuddin (7)  12:18 12:15-12:20 12:17-2m321030.516209mNRNew Delhi 110013, Delhi NCT
71NDLSNew Delhi (16)X  12:45-13:15-30m121037.814215mNRNew Delhi, Delhi NCT
72DKZDelhi KishanGanj (2)  13:32-13:34-2m--21041.730220mNRSarai Rohilla, Delhi NCT
73SSBShakur Basti  13:49 13:48-13:51 13:50-2m--21048.717216mNRPitampura, Delhi NCT
74NNONangloi  14:00 14:16-14:02 14:18-2m--21056.258219mNRJJ Colony No 1, Delhi NCT
75BGZBahadurgarhX  14:14 14:31-14:16 14:33-2m--21068.772220mNRBahadurgarh, Haryana
76SPZSampla  14:43 14:48-14:45 14:50-2m--21086.654222mNRSampla, Haryana
77ROKRohtak Junction (3)  15:10 15:15-15:15 15:20-5m--21108.990220mNRRohtak, Haryana
78JNAJulana  15:41-15:43-2m--21140.348226mNRJulana, Haryana
79JINDJind Junction (3)  16:15-16:20-5m--21166.075222mNR126102., Haryana
80UCAUchana  16:35-16:37-2m--21184.765225mNRDistrict Jind, Haryana
81NRWNarwana Junction (4)  16:51-16:53-2m--21199.976235mNRWay to Narwana, Haryana
82TUNTohana (2)  17:14 17:13-17:15-1 2m--21225.437232mNRTohana, Haryana
83JHLJakhal Junction  17:35-17:40-5m--21237.678225mNRJakhal, Haryana
84BRZBareta  17:51-17:53-2m--21251.871223mNRBareta, Punjab
85BLZBudhlada  18:06-18:08-2m--21267.264223mNRBudhlada, Punjab
86MSZMansaX  18:23-18:25-2m--21283.337222mNRMansa, Punjab
87KTKLKotli Kalan  18:39-18:41-2m--21291.9101219mNRState Highway 12A, Punjab
88MAURMaur  18:47-18:49-2m--21302.035220mNRMaur Mandi, Punjab
89BTIBathinda Junction (6)  19:50-20:00-10m121337.567208mNRBathinda, Punjab
90GNAGoneana Bhai Jagta (3)  20:11-20:13-2m121349.857206mNRGoniana, Punjab
91GJUTGangsar Jaitu (3)  20:28-20:30-2m121364.049207mNRJaitu, Punjab
92KKPKot Kapura Junction (3)  20:50-20:52-2m121380.3590mNRKotkapura, Punjab
93FDKFaridkot (3)  21:05-21:07-2m121393.027202mNRFaridkot, Punjab
94FZR•Firozpur Cantt. Junction (5)•  22:20--121425.3-200mNRFirozpur Cantt 152001, Punjab
Scroll to Top
Scroll to Bottom